Time;durP1;ratioP1;P1;durP2;ratioP2;P2;SDS_P1;SDS_P2;PMS_P1;PMS_P2;Temp;Humidity;BMP_temperature;BMP_pressure;BME280_temperature;BME280_humidity;BME280_pressure;Samples;Min_cycle;Max_cycle;Signal;HPM_P1;HPM_P2
2022/05/20 00:01:59;;;;;;;6.13;3.00;;;21.80;50.20;;;;;;5093497;28;20036;-76
2022/05/20 00:04:25;;;;;;;5.68;3.33;;;21.80;50.20;;;;;;5093748;28;20032;-75
2022/05/20 00:06:51;;;;;;;7.47;3.58;;;21.80;50.00;;;;;;5093664;28;20023;-76
2022/05/20 00:09:17;;;;;;;7.30;3.67;;;21.80;49.80;;;;;;5093536;28;20020;-76
2022/05/20 00:11:43;;;;;;;12.82;3.20;;;21.80;49.60;;;;;;5093624;28;20225;-76
2022/05/20 00:14:09;;;;;;;7.95;3.20;;;21.90;49.50;;;;;;5075283;28;20140;-77
2022/05/20 00:16:35;;;;;;;9.15;3.67;;;21.90;49.30;;;;;;5093518;28;20032;-77
2022/05/20 00:19:06;;;;;;;5.95;3.20;;;22.00;49.20;;;;;;5093553;28;20391;-77
2022/05/20 00:21:33;;;;;;;5.32;3.20;;;21.90;49.00;;;;;;5093312;28;20031;-78
2022/05/20 00:23:59;;;;;;;8.70;3.40;;;22.00;49.00;;;;;;5093337;28;20507;-77
2022/05/20 00:26:25;;;;;;;5.53;2.75;;;22.00;48.90;;;;;;5092273;28;20055;-77
2022/05/20 00:28:53;;;;;;;6.88;3.30;;;22.10;49.00;;;;;;5093353;28;20505;-77
2022/05/20 00:31:20;;;;;;;6.03;3.20;;;22.10;48.90;;;;;;5093211;28;20119;-77
2022/05/20 00:33:46;;;;;;;4.15;2.88;;;22.10;48.60;;;;;;5093159;28;20534;-78
2022/05/20 00:36:12;;;;;;;4.97;2.90;;;22.20;48.50;;;;;;5093170;28;20032;-78
2022/05/20 00:38:38;;;;;;;5.10;3.30;;;22.20;48.30;;;;;;5093124;28;20078;-79
2022/05/20 00:41:05;;;;;;;4.05;2.72;;;22.30;48.50;;;;;;5093239;28;20024;-79
2022/05/20 00:43:33;;;;;;;7.13;2.50;;;22.30;48.30;;;;;;5091415;28;20024;-78
2022/05/20 00:46:11;;;;;;;3.40;2.92;;;22.30;48.60;;;;;;5093060;28;20055;-79
2022/05/20 00:48:38;;;;;;;7.55;3.42;;;22.40;48.90;;;;;;5092936;28;20052;-78
2022/05/20 00:51:09;;;;;;;4.82;2.90;;;22.40;49.70;;;;;;5092639;28;20081;-78
2022/05/20 00:53:54;;;;;;;5.65;2.92;;;22.40;49.90;;;;;;5093110;28;20427;-77
2022/05/20 00:56:24;;;;;;;4.53;2.80;;;22.40;50.00;;;;;;5092693;28;20111;-76
2022/05/20 00:58:52;;;;;;;4.47;2.80;;;22.40;50.30;;;;;;5074792;28;20024;-78
2022/05/20 01:01:19;;;;;;;9.05;3.10;;;22.40;50.70;;;;;;5074385;28;20040;-75
2022/05/20 01:03:46;;;;;;;5.03;2.78;;;22.40;50.70;;;;;;5092598;28;20424;-76
2022/05/20 01:06:12;;;;;;;3.75;2.95;;;22.40;51.00;;;;;;5074548;28;20016;-75
2022/05/20 01:08:40;;;;;;;4.50;2.95;;;22.30;51.50;;;;;;5092550;28;20094;-76
2022/05/20 01:11:06;;;;;;;5.90;3.40;;;22.30;51.60;;;;;;5092531;28;20103;-76
2022/05/20 01:13:33;;;;;;;7.80;2.95;;;22.20;52.10;;;;;;5092373;28;20390;-79
2022/05/20 01:16:03;;;;;;;4.38;2.60;;;22.20;52.20;;;;;;5092527;28;20024;-76
2022/05/20 01:18:33;;;;;;;6.43;2.25;;;22.10;51.90;;;;;;5092531;28;20020;-75
2022/05/20 01:20:59;;;;;;;9.80;3.22;;;22.10;52.00;;;;;;5092451;28;20024;-75
2022/05/20 01:23:28;;;;;;;6.43;3.20;;;22.00;52.50;;;;;;5092687;28;20019;-76
2022/05/20 01:25:57;;;;;;;4.63;2.85;;;22.00;52.30;;;;;;5074337;28;20031;-76
2022/05/20 01:28:25;;;;;;;7.75;2.75;;;22.00;52.60;;;;;;5092419;28;20021;-76
2022/05/20 01:30:57;;;;;;;3.10;2.80;;;21.90;52.50;;;;;;5092477;28;20084;-75
2022/05/20 01:33:24;;;;;;;7.25;3.05;;;21.80;52.70;;;;;;5074472;28;20644;-76
2022/05/20 01:35:50;;;;;;;3.63;3.00;;;21.80;53.10;;;;;;5092437;28;20043;-76
2022/05/20 01:38:16;;;;;;;4.55;3.40;;;21.70;52.90;;;;;;5074244;28;20028;-77
2022/05/20 01:40:58;;;;;;;6.93;3.65;;;21.70;53.60;;;;;;5092142;28;20035;-77
2022/05/20 01:43:43;;;;;;;4.07;3.17;;;21.60;53.80;;;;;;5092292;28;20151;-76
2022/05/20 01:46:17;;;;;;;;;;;21.50;54.20;;;;;;5092731;28;20461;-76
2022/05/20 01:48:52;;;;;;;5.88;3.47;;;21.50;52.30;;;;;;5092218;28;19904;-76
2022/05/20 01:51:22;;;;;;;5.15;2.88;;;21.50;53.70;;;;;;5092258;28;20437;-76
2022/05/20 01:53:58;;;;;;;6.00;3.25;;;21.40;54.20;;;;;;5074068;28;20444;-76
2022/05/20 01:56:32;;;;;;;4.40;3.15;;;21.40;54.60;;;;;;5092198;28;20025;-76
2022/05/20 01:59:27;;;;;;;7.80;3.75;;;21.30;54.70;;;;;;5092102;28;20025;-77
2022/05/20 02:01:59;;;;;;;4.15;3.05;;;21.20;54.80;;;;;;5073750;28;20382;-76
2022/05/20 02:04:43;;;;;;;7.30;3.25;;;21.20;54.80;;;;;;5074048;28;20516;-77
2022/05/20 02:07:13;;;;;;;6.10;3.90;;;21.20;55.10;;;;;;5073991;28;20477;-76
2022/05/20 02:09:45;;;;;;;9.60;3.53;;;21.20;55.40;;;;;;5077040;28;20031;-76
2022/05/20 02:12:15;;;;;;;9.77;3.38;;;21.10;55.30;;;;;;5077442;28;20028;-76
2022/05/20 02:14:51;;;;;;;4.57;3.05;;;21.10;55.40;;;;;;5095778;28;20516;-76
2022/05/20 02:17:24;;;;;;;7.07;3.40;;;21.10;55.60;;;;;;5095598;28;20024;-76
2022/05/20 02:20:27;;;;;;;4.38;3.20;;;21.10;55.80;;;;;;5077407;28;20028;-76
2022/05/20 02:22:57;;;;;;;3.63;2.70;;;21.00;55.90;;;;;;5077374;28;20034;-76
2022/05/20 02:25:32;;;;;;;5.18;3.08;;;21.10;55.70;;;;;;5095500;28;20012;-76
2022/05/20 02:28:24;;;;;;;6.63;3.50;;;21.00;56.00;;;;;;5095425;28;20020;-76
2022/05/20 02:30:50;;;;;;;4.25;3.45;;;21.00;56.10;;;;;;5082360;28;20505;-76
2022/05/20 02:33:22;;;;;;;6.05;3.53;;;21.00;56.00;;;;;;5095358;28;20103;-77
2022/05/20 02:35:49;;;;;;;5.63;3.80;;;21.00;56.20;;;;;;5095376;28;20076;-77
2022/05/20 02:38:21;;;;;;;8.27;3.58;;;21.00;56.40;;;;;;5077168;28;20434;-76
2022/05/20 02:40:49;;;;;;;5.35;3.67;;;21.00;56.50;;;;;;5077100;28;20024;-77
2022/05/20 02:43:16;;;;;;;4.90;3.80;;;21.00;56.90;;;;;;5095110;28;20465;-76
2022/05/20 02:45:44;;;;;;;5.10;3.38;;;20.90;57.10;;;;;;5077017;28;20470;-76
2022/05/20 02:48:13;;;;;;;7.25;3.83;;;20.90;57.00;;;;;;5095111;28;20496;-76
2022/05/20 02:50:39;;;;;;;5.10;3.60;;;20.90;57.10;;;;;;5095112;28;20492;-77
2022/05/20 02:53:05;;;;;;;6.30;3.63;;;21.00;57.10;;;;;;5076832;28;20024;-78
2022/05/20 02:55:31;;;;;;;4.80;3.45;;;21.00;56.90;;;;;;5094887;28;20035;-76
2022/05/20 02:57:56;;;;;;;5.70;3.50;;;21.00;57.50;;;;;;5094895;28;20389;-77
2022/05/20 03:05:51;;;;;;;6.53;4.00;;;21.00;57.10;;;;;;5094720;28;20031;-77
2022/05/20 03:08:18;;;;;;;5.93;4.15;;;21.00;57.70;;;;;;5094625;28;20015;-77
2022/05/20 03:10:44;;;;;;;7.13;4.60;;;21.00;58.40;;;;;;5094528;28;20024;-76
2022/05/20 03:13:09;;;;;;;7.30;4.70;;;21.00;58.60;;;;;;5094538;28;20150;-76
2022/05/20 03:15:40;;;;;;;7.80;4.00;;;21.00;58.90;;;;;;5094503;28;20027;-77
2022/05/20 03:18:10;;;;;;;8.05;4.43;;;21.00;58.60;;;;;;5076245;28;20032;-76
2022/05/20 03:20:41;;;;;;;6.55;4.68;;;20.90;58.80;;;;;;5094303;28;20031;-76
2022/05/20 03:23:09;;;;;;;6.18;3.67;;;20.90;58.90;;;;;;5076120;28;20093;-77
2022/05/20 03:25:36;;;;;;;4.85;3.58;;;20.90;58.50;;;;;;5094275;28;20012;-77
2022/05/20 03:28:02;;;;;;;14.73;3.92;;;21.00;58.30;;;;;;5076098;28;20371;-77
2022/05/20 03:30:28;;;;;;;4.30;3.35;;;21.00;58.30;;;;;;5094097;28;20067;-77
2022/05/20 03:32:54;;;;;;;9.55;3.80;;;21.00;58.20;;;;;;5075908;28;20085;-76
2022/05/20 03:35:19;;;;;;;4.13;3.65;;;21.00;58.20;;;;;;5094471;28;20052;-76
2022/05/20 03:37:45;;;;;;;6.38;4.22;;;21.00;58.10;;;;;;5097267;28;20024;-77
2022/05/20 03:40:11;;;;;;;5.55;3.78;;;21.00;58.30;;;;;;5097245;28;20024;-77
2022/05/20 03:42:37;;;;;;;5.00;3.78;;;21.00;58.30;;;;;;5078450;28;20043;-76
2022/05/20 03:45:04;;;;;;;5.22;3.72;;;21.00;58.30;;;;;;5094996;28;20031;-76
2022/05/20 03:47:29;;;;;;;6.38;3.75;;;21.00;58.30;;;;;;5094995;28;20028;-77
2022/05/20 03:49:55;;;;;;;4.18;3.70;;;21.00;58.20;;;;;;5075795;28;20035;-76
2022/05/20 03:52:21;;;;;;;5.80;4.03;;;21.00;58.30;;;;;;5075871;28;20051;-77
2022/05/20 03:54:47;;;;;;;6.15;4.22;;;21.10;58.60;;;;;;5093734;28;20024;-76
2022/05/20 03:57:13;;;;;;;6.50;4.05;;;21.00;58.70;;;;;;5093656;28;20386;-77
2022/05/20 03:59:39;;;;;;;4.20;3.80;;;21.10;58.80;;;;;;5075426;28;20024;-77
2022/05/20 04:02:08;;;;;;;8.50;4.32;;;21.00;59.10;;;;;;5093319;28;20040;-77
2022/05/20 04:04:44;;;;;;;5.65;4.25;;;21.00;59.60;;;;;;5074373;28;20114;-78
2022/05/20 04:07:20;;;;;;;7.53;4.18;;;21.00;59.60;;;;;;5092807;28;20012;-77
2022/05/20 04:09:45;;;;;;;9.82;4.38;;;21.00;59.70;;;;;;5055246;28;20024;-77
2022/05/20 04:12:22;;;;;;;9.75;4.85;;;21.00;59.80;;;;;;5073071;28;20021;-77
2022/05/20 04:14:48;;;;;;;7.50;3.80;;;21.10;59.90;;;;;;5073006;28;20031;-77
2022/05/20 04:17:13;;;;;;;5.45;3.67;;;21.10;59.80;;;;;;5055046;28;20028;-77
2022/05/20 04:19:39;;;;;;;5.10;3.92;;;21.10;59.70;;;;;;5086340;28;20107;-78
2022/05/20 04:22:08;;;;;;;5.78;3.65;;;21.10;59.80;;;;;;5075190;28;20381;-78
2022/05/20 04:24:35;;;;;;;5.45;4.00;;;21.10;59.70;;;;;;5093075;28;20097;-78
2022/05/20 04:27:01;;;;;;;8.95;4.28;;;21.20;59.80;;;;;;5093076;28;20039;-77
2022/05/20 04:29:26;;;;;;;6.40;3.88;;;21.20;59.80;;;;;;5092996;28;20020;-77
2022/05/20 04:31:52;;;;;;;5.22;4.00;;;21.30;59.60;;;;;;5074402;28;20028;-77
2022/05/20 04:34:19;;;;;;;6.45;4.07;;;21.30;59.60;;;;;;5074715;28;20035;-77
2022/05/20 04:36:46;;;;;;;5.20;3.75;;;21.30;59.50;;;;;;5074789;28;20028;-78
2022/05/20 04:39:12;;;;;;;5.82;3.65;;;21.30;59.60;;;;;;5092832;28;20027;-77
2022/05/20 04:47:15;;;;;;;8.05;4.30;;;21.40;59.30;;;;;;5093091;28;20031;-77
2022/05/20 04:49:42;;;;;;;12.85;3.90;;;21.40;59.50;;;;;;5074598;28;20023;-77
2022/05/20 04:52:08;;;;;;;15.23;5.43;;;21.40;59.40;;;;;;5092617;28;20028;-77
2022/05/20 04:57:20;;;;;;;;;;;21.50;59.40;;;;;;5093153;28;20539;-77
2022/05/20 04:59:46;;;;;;;9.60;3.65;;;21.60;58.70;;;;;;5074387;28;20292;-77
2022/05/20 05:02:13;;;;;;;6.50;3.97;;;21.60;58.80;;;;;;5090894;28;20024;-77
2022/05/20 05:04:39;;;;;;;11.13;3.88;;;21.60;58.90;;;;;;5072332;28;20017;-77
2022/05/20 05:07:09;;;;;;;5.90;3.95;;;21.60;59.00;;;;;;5072325;28;20021;-77
2022/05/20 05:09:39;;;;;;;8.05;4.18;;;21.60;59.20;;;;;;5072521;28;20108;-77
2022/05/20 05:12:06;;;;;;;5.72;3.88;;;21.60;59.20;;;;;;5072352;28;20050;-77
2022/05/20 05:14:40;;;;;;;12.13;6.53;;;21.60;59.30;;;;;;5072146;28;20025;-78
2022/05/20 05:17:12;;;;;;;6.30;3.83;;;21.60;59.40;;;;;;5072493;28;20081;-77
2022/05/20 05:19:39;;;;;;;6.80;4.35;;;21.60;59.30;;;;;;5071917;28;20029;-77
2022/05/20 05:22:06;;;;;;;5.47;4.05;;;21.70;59.20;;;;;;5073533;28;20020;-78
2022/05/20 05:24:33;;;;;;;5.32;4.00;;;21.80;59.00;;;;;;5074367;28;20107;-77
2022/05/20 05:26:59;;;;;;;4.90;4.40;;;21.80;58.90;;;;;;5074369;28;20028;-77
2022/05/20 05:29:25;;;;;;;7.18;4.10;;;21.90;58.90;;;;;;5076018;28;20020;-77
2022/05/20 05:31:52;;;;;;;5.05;3.85;;;22.00;58.90;;;;;;5092189;28;20032;-77
2022/05/20 05:34:18;;;;;;;5.35;4.05;;;22.00;58.80;;;;;;5092099;28;20023;-78
2022/05/20 05:36:43;;;;;;;5.07;3.95;;;22.10;58.70;;;;;;5092189;28;20028;-77
2022/05/20 05:39:09;;;;;;;7.65;3.22;;;22.20;58.60;;;;;;5092289;28;20023;-77
2022/05/20 05:41:36;;;;;;;15.63;3.95;;;22.30;58.50;;;;;;5092075;28;20032;-77
2022/05/20 05:44:03;;;;;;;4.82;3.65;;;22.40;58.50;;;;;;5090968;28;20025;-77
2022/05/20 05:46:30;;;;;;;6.85;3.45;;;22.50;58.50;;;;;;5078275;28;20103;-77
2022/05/20 05:48:59;;;;;;;9.05;3.67;;;22.60;58.40;;;;;;5096946;28;20016;-77
2022/05/20 05:51:25;;;;;;;4.93;3.70;;;22.60;58.30;;;;;;5098188;28;20484;-77
2022/05/20 05:53:52;;;;;;;6.57;4.10;;;22.80;58.20;;;;;;5094868;28;20099;-77
2022/05/20 05:56:18;;;;;;;7.18;4.05;;;22.80;57.90;;;;;;5082462;28;20031;-77
2022/05/20 05:58:43;;;;;;;10.25;4.28;;;22.90;57.70;;;;;;5101415;28;20501;-77
2022/05/20 06:01:10;;;;;;;6.03;3.92;;;22.90;57.60;;;;;;5090444;28;20039;-78
2022/05/20 06:03:36;;;;;;;4.35;3.55;;;23.00;57.30;;;;;;5093887;28;20031;-77
2022/05/20 06:06:02;;;;;;;7.93;4.28;;;23.10;57.20;;;;;;5081548;28;20164;-77
2022/05/20 06:08:28;;;;;;;6.50;4.47;;;23.20;57.10;;;;;;5095714;28;20099;-77
2022/05/20 06:10:53;;;;;;;7.75;4.35;;;23.30;57.10;;;;;;5077794;28;20082;-77
2022/05/20 06:13:25;;;;;;;8.73;4.53;;;23.30;56.90;;;;;;5095233;28;20034;-77
2022/05/20 06:15:52;;;;;;;7.22;4.15;;;23.40;56.70;;;;;;5095830;28;20031;-77
2022/05/20 06:18:18;;;;;;;13.07;6.15;;;23.40;56.60;;;;;;5095580;28;20464;-77
2022/05/20 06:20:44;;;;;;;13.65;4.72;;;23.50;56.60;;;;;;5077244;28;20024;-77
2022/05/20 06:23:10;;;;;;;6.68;4.55;;;23.60;56.70;;;;;;5095778;28;20394;-77
2022/05/20 06:25:37;;;;;;;7.05;4.53;;;23.60;56.50;;;;;;5095579;28;20099;-77
2022/05/20 06:28:09;;;;;;;9.30;5.10;;;23.70;56.30;;;;;;5077216;28;20149;-77
2022/05/20 06:30:35;;;;;;;8.48;4.40;;;23.80;56.10;;;;;;5077293;28;20031;-77
2022/05/20 06:33:02;;;;;;;8.75;4.45;;;23.80;56.00;;;;;;5095555;28;20428;-77
2022/05/20 06:40:56;;;;;;;6.88;4.57;;;24.00;55.70;;;;;;5091842;28;20027;-77
2022/05/20 06:43:23;;;;;;;6.20;4.93;;;24.10;55.50;;;;;;5075116;28;20025;-77
2022/05/20 06:45:51;;;;;;;10.93;3.53;;;24.20;55.40;;;;;;5084091;28;20048;-78
2022/05/20 06:48:17;;;;;;;7.10;4.65;;;24.20;55.20;;;;;;5094591;28;20044;-77
2022/05/20 06:50:43;;;;;;;9.30;4.63;;;24.30;55.10;;;;;;5083649;28;20051;-77
2022/05/20 06:53:09;;;;;;;6.18;4.15;;;24.40;55.10;;;;;;5062217;28;20028;-77
2022/05/20 06:55:35;;;;;;;7.80;4.60;;;24.50;55.00;;;;;;5091156;28;20024;-77
2022/05/20 06:58:02;;;;;;;9.32;4.43;;;24.50;54.80;;;;;;5083266;28;20027;-78
2022/05/20 07:00:28;;;;;;;5.07;3.90;;;24.60;54.80;;;;;;5084099;28;20052;-78
2022/05/20 07:02:54;;;;;;;7.28;4.88;;;24.70;54.60;;;;;;5094241;28;20081;-77
2022/05/20 07:05:20;;;;;;;11.10;4.10;;;24.80;54.60;;;;;;5080462;28;20024;-79
2022/05/20 07:07:46;;;;;;;5.57;3.83;;;24.80;54.30;;;;;;5076549;28;20567;-78
2022/05/20 07:10:13;;;;;;;7.72;4.72;;;24.90;54.10;;;;;;5076711;28;20362;-78
2022/05/20 07:12:40;;;;;;;5.68;3.85;;;25.00;54.00;;;;;;5073452;28;20027;-77
2022/05/20 07:15:07;;;;;;;7.40;3.88;;;25.00;53.80;;;;;;5091733;28;20024;-77
2022/05/20 07:17:32;;;;;;;6.07;3.88;;;25.10;53.80;;;;;;5069722;28;20571;-77
2022/05/20 07:19:58;;;;;;;5.90;3.40;;;25.20;53.60;;;;;;5094497;28;20095;-76
2022/05/20 07:22:24;;;;;;;10.32;4.20;;;25.30;53.20;;;;;;5090800;28;20163;-77
2022/05/20 07:24:51;;;;;;;6.95;2.90;;;25.40;52.70;;;;;;5073903;28;20019;-77
2022/05/20 07:27:17;;;;;;;4.32;2.85;;;25.40;52.20;;;;;;5062292;28;20032;-77
2022/05/20 07:29:43;;;;;;;11.50;3.78;;;25.50;52.00;;;;;;5094216;28;20048;-79
2022/05/20 07:32:09;;;;;;;7.55;3.22;;;25.60;51.50;;;;;;5094107;28;20046;-78
2022/05/20 07:34:35;;;;;;;3.92;2.78;;;25.70;51.10;;;;;;5094068;28;20024;-78
2022/05/20 07:37:01;;;;;;;6.75;3.50;;;25.70;50.80;;;;;;5076071;28;20116;-78
2022/05/20 07:39:27;;;;;;;4.40;2.88;;;25.80;51.10;;;;;;5091887;28;20074;-77
2022/05/20 07:41:53;;;;;;;8.15;2.90;;;25.80;50.80;;;;;;5082446;28;20024;-76
2022/05/20 07:44:19;;;;;;;10.98;2.67;;;25.90;50.20;;;;;;5076141;28;20021;-78
2022/05/20 07:46:45;;;;;;;3.17;2.17;;;26.00;50.10;;;;;;5073872;28;20020;-76
2022/05/20 07:49:12;;;;;;;4.43;2.25;;;26.10;49.30;;;;;;5073688;28;20025;-76
2022/05/20 07:51:40;;;;;;;10.63;2.47;;;26.20;48.60;;;;;;5055849;28;20025;-76
2022/05/20 07:54:11;;;;;;;6.22;2.42;;;26.20;46.90;;;;;;5059251;28;20409;-77
2022/05/20 07:56:40;;;;;;;7.40;2.38;;;26.30;47.00;;;;;;5093714;28;20023;-77
2022/05/20 07:59:16;;;;;;;3.53;2.17;;;26.40;46.60;;;;;;5093475;28;20493;-76
2022/05/20 08:01:47;;;;;;;5.63;2.05;;;26.40;46.30;;;;;;5072848;28;20131;-77
2022/05/20 08:07:04;;;;;;;5.75;2.20;;;26.60;44.80;;;;;;5086531;28;20488;-77
2022/05/20 08:09:30;;;;;;;2.13;1.92;;;26.70;44.90;;;;;;5093072;28;20059;-78
2022/05/20 08:11:57;;;;;;;3.50;2.15;;;26.80;45.50;;;;;;5089766;28;20718;-78
2022/05/20 08:14:26;;;;;;;11.75;2.13;;;26.90;45.10;;;;;;5090874;28;20020;-78
2022/05/20 08:16:52;;;;;;;3.92;2.00;;;27.00;45.10;;;;;;5082245;28;20411;-78
2022/05/20 08:19:17;;;;;;;4.05;2.03;;;27.00;44.70;;;;;;5087232;28;20035;-78
2022/05/20 08:21:43;;;;;;;3.05;2.08;;;27.20;45.00;;;;;;5093958;28;20129;-76
2022/05/20 08:24:09;;;;;;;3.97;2.42;;;27.20;44.50;;;;;;5100962;28;20024;-76
2022/05/20 08:26:35;;;;;;;3.08;2.35;;;27.40;44.30;;;;;;5102410;28;20020;-77
2022/05/20 08:29:01;;;;;;;2.08;1.88;;;27.40;44.50;;;;;;5093361;28;20024;-77
2022/05/20 08:31:27;;;;;;;4.03;1.98;;;27.50;44.10;;;;;;5093258;28;20060;-76
2022/05/20 08:33:53;;;;;;;4.53;1.75;;;27.60;43.70;;;;;;5071732;28;20047;-76
2022/05/20 08:36:19;;;;;;;6.80;1.85;;;27.70;43.90;;;;;;5073140;28;20029;-77
2022/05/20 08:38:47;;;;;;;4.30;2.40;;;27.80;44.10;;;;;;5072865;28;20031;-76
2022/05/20 08:41:22;;;;;;;3.90;1.92;;;27.90;43.80;;;;;;5083260;28;20334;-78
2022/05/20 08:43:48;;;;;;;2.40;1.67;;;28.00;43.20;;;;;;5071629;28;20067;-77
2022/05/20 08:46:15;;;;;;;2.38;1.73;;;28.00;42.00;;;;;;5090316;28;20036;-77
2022/05/20 08:48:43;;;;;;;2.80;2.08;;;28.10;42.40;;;;;;5068807;28;20397;-76
2022/05/20 08:51:10;;;;;;;7.70;2.28;;;28.10;41.80;;;;;;5092961;28;20065;-77
2022/05/20 08:53:44;;;;;;;3.50;2.00;;;28.20;41.60;;;;;;5074613;28;20060;-77
2022/05/20 08:56:15;;;;;;;2.35;2.10;;;28.20;41.20;;;;;;5092901;28;20047;-77
2022/05/20 08:58:52;;;;;;;4.00;1.80;;;28.30;41.30;;;;;;5092781;28;20028;-77
2022/05/20 09:01:29;;;;;;;5.13;1.80;;;28.30;41.10;;;;;;5082872;28;20068;-77
2022/05/20 09:03:55;;;;;;;2.72;1.75;;;28.40;41.00;;;;;;5072643;28;20630;-77
2022/05/20 09:06:22;;;;;;;3.63;1.70;;;28.40;41.10;;;;;;5072756;28;20013;-77
2022/05/20 09:09:13;;;;;;;1.67;1.58;;;28.50;40.80;;;;;;5072663;28;20103;-78
2022/05/20 09:11:41;;;;;;;2.70;1.63;;;28.60;41.00;;;;;;5054780;28;20472;-78
2022/05/20 09:17:11;;;;;;;3.60;1.75;;;28.70;39.10;;;;;;5073674;28;20052;-78
2022/05/20 09:19:39;;;;;;;5.00;1.92;;;28.80;39.50;;;;;;5076755;28;20028;-77
2022/05/20 09:22:10;;;;;;;11.55;2.08;;;28.80;39.00;;;;;;5058476;28;20028;-77
2022/05/20 09:24:39;;;;;;;7.97;1.48;;;28.80;38.50;;;;;;5059834;28;20028;-77
2022/05/20 09:27:15;;;;;;;5.40;1.83;;;28.90;38.80;;;;;;5069902;28;20097;-78
2022/05/20 09:30:09;;;;;;;2.28;1.45;;;28.90;38.80;;;;;;5076351;28;20166;-76
2022/05/20 09:32:45;;;;;;;2.75;1.80;;;28.90;38.80;;;;;;5085063;28;20024;-77
2022/05/20 09:35:15;;;;;;;2.22;2.00;;;29.00;37.90;;;;;;5088340;28;20032;-78
2022/05/20 09:37:41;;;;;;;2.10;1.70;;;29.10;37.80;;;;;;5076317;28;20350;-76
2022/05/20 09:40:21;;;;;;;4.07;1.45;;;29.10;37.90;;;;;;5058151;28;20040;-77
2022/05/20 09:43:09;;;;;;;2.72;1.58;;;29.20;38.10;;;;;;5076558;28;20024;-76
2022/05/20 09:45:46;;;;;;;2.63;1.80;;;29.20;38.40;;;;;;5066476;28;20020;-77
2022/05/20 09:48:40;;;;;;;4.35;1.42;;;29.30;38.10;;;;;;5096533;28;20377;-77
2022/05/20 09:51:14;;;;;;;8.40;1.98;;;29.30;38.20;;;;;;5090794;28;20036;-78
2022/05/20 09:53:42;;;;;;;2.97;1.55;;;29.40;37.60;;;;;;5077912;28;20057;-76
2022/05/20 09:56:29;;;;;;;3.22;1.70;;;29.50;37.40;;;;;;5096081;28;20474;-76
2022/05/20 09:59:22;;;;;;;2.13;1.65;;;29.50;38.00;;;;;;5076160;28;20031;-78
2022/05/20 10:02:09;;;;;;;2.43;1.80;;;29.60;36.40;;;;;;5075194;28;20099;-77
2022/05/20 10:05:11;;;;;;;3.03;1.65;;;29.60;37.00;;;;;;5057367;28;20032;-76
2022/05/20 10:07:43;;;;;;;3.03;1.67;;;29.60;37.20;;;;;;4991306;28;20032;-77
2022/05/20 10:10:17;;;;;;;3.08;2.03;;;29.60;36.30;;;;;;5075621;28;20027;-75
2022/05/20 10:12:45;;;;;;;;;;;29.70;35.90;;;;;;5076040;28;20493;-76
2022/05/20 10:15:17;;;;;;;2.30;1.73;;;29.70;37.50;;;;;;5057611;28;19904;-76
2022/05/20 10:18:05;;;;;;;2.22;1.70;;;29.70;36.30;;;;;;5075630;28;20035;-76
2022/05/20 10:21:00;;;;;;;2.90;1.73;;;29.70;36.60;;;;;;5075359;28;20020;-76
2022/05/20 10:23:39;;;;;;;1.75;1.65;;;29.70;36.60;;;;;;5075652;28;20543;-78
2022/05/20 10:26:21;;;;;;;2.80;1.77;;;29.80;36.60;;;;;;5075507;28;20032;-78
2022/05/20 10:34:53;;;;;;;7.07;2.00;;;29.90;36.00;;;;;;5075600;28;20086;-76
2022/05/20 10:37:49;;;;;;;2.63;1.90;;;29.90;35.50;;;;;;5075072;28;20486;-76
2022/05/20 10:40:36;;;;;;;2.40;2.00;;;29.90;35.70;;;;;;5075490;28;20094;-77
2022/05/20 10:43:30;;;;;;;2.92;2.03;;;29.90;35.90;;;;;;5057486;28;20043;-77
2022/05/20 10:49:06;;;;;;;5.00;1.50;;;30.00;35.70;;;;;;5075887;28;20043;-76
2022/05/20 10:51:38;;;;;;;3.40;1.80;;;30.00;35.60;;;;;;5075004;28;20028;-77
2022/05/20 10:54:25;;;;;;;4.25;2.10;;;30.10;36.50;;;;;;5075190;28;20100;-75
2022/05/20 10:57:16;;;;;;;2.05;1.80;;;30.10;35.80;;;;;;5075090;28;20016;-77
2022/05/20 11:00:09;;;;;;;13.35;2.10;;;30.10;35.80;;;;;;5076019;28;20099;-76
2022/05/20 11:02:50;;;;;;;4.00;2.13;;;30.20;35.70;;;;;;5039689;28;20036;-76
2022/05/20 11:05:30;;;;;;;5.30;2.15;;;30.20;35.10;;;;;;5033742;28;20033;-77
2022/05/20 11:08:02;;;;;;;4.65;1.63;;;30.30;35.00;;;;;;5033419;28;20051;-77
2022/05/20 11:10:52;;;;;;;3.03;1.92;;;30.30;34.90;;;;;;5034546;28;20030;-77
2022/05/20 11:13:33;;;;;;;2.85;1.80;;;30.40;35.20;;;;;;5034758;28;20021;-77
2022/05/20 11:16:19;;;;;;;2.38;1.92;;;30.40;35.40;;;;;;5034629;28;20021;-77
2022/05/20 11:18:45;;;;;;;5.88;2.10;;;30.50;35.30;;;;;;5034400;28;20080;-77
2022/05/20 11:21:23;;;;;;;5.93;1.73;;;30.50;34.90;;;;;;5033188;28;20490;-76
2022/05/20 11:23:57;;;;;;;3.55;1.90;;;30.60;34.70;;;;;;5034412;28;20024;-76
2022/05/20 11:26:44;;;;;;;2.28;1.70;;;30.70;34.60;;;;;;5034310;28;20032;-75
2022/05/20 11:29:32;;;;;;;7.63;2.08;;;30.70;34.90;;;;;;5033112;28;20383;-77
2022/05/20 11:32:07;;;;;;;2.17;1.70;;;30.80;34.50;;;;;;5047488;28;20021;-76
2022/05/20 11:34:57;;;;;;;4.03;2.10;;;30.80;34.50;;;;;;5052593;28;20033;-76
2022/05/20 11:37:44;;;;;;;3.40;1.90;;;30.90;34.90;;;;;;5054071;28;20023;-75
2022/05/20 11:40:30;;;;;;;3.65;1.70;;;30.90;34.60;;;;;;5051988;28;20025;-75
2022/05/20 11:43:23;;;;;;;2.42;1.90;;;31.00;35.00;;;;;;5053605;28;20021;-77
2022/05/20 11:46:19;;;;;;;2.22;1.80;;;31.10;34.50;;;;;;5052118;28;20067;-76
2022/05/20 11:48:59;;;;;;;3.92;2.00;;;31.10;34.60;;;;;;5053819;28;20047;-76
2022/05/20 11:51:37;;;;;;;3.40;2.10;;;31.20;34.30;;;;;;5052519;28;20035;-77
2022/05/20 11:54:34;;;;;;;2.47;2.00;;;31.30;34.10;;;;;;5052670;28;20048;-77
2022/05/20 11:57:07;;;;;;;3.05;2.30;;;31.30;34.00;;;;;;5063214;28;20021;-76
2022/05/20 11:59:57;;;;;;;;;;;31.40;33.20;;;;;;5052754;28;20032;-77
2022/05/20 12:02:26;;;;;;;2.90;2.05;;;31.50;34.20;;;;;;5073592;28;19916;-77
2022/05/20 12:04:53;;;;;;;13.20;2.35;;;31.60;33.50;;;;;;5073512;28;20070;-76
2022/05/20 12:07:22;;;;;;;3.55;2.08;;;31.60;32.70;;;;;;5073419;28;20122;-77
2022/05/20 12:09:56;;;;;;;2.97;1.90;;;31.70;33.00;;;;;;5073777;28;20409;-76
2022/05/20 12:12:33;;;;;;;3.78;1.95;;;31.70;32.70;;;;;;5073466;28;20355;-77
2022/05/20 12:15:11;;;;;;;4.63;1.80;;;31.80;32.90;;;;;;5073346;28;20045;-76
2022/05/20 12:17:47;;;;;;;3.47;2.20;;;31.90;32.40;;;;;;5073014;28;20017;-74
2022/05/20 12:25:58;;;;;;;4.60;3.15;;;32.10;32.80;;;;;;5073020;28;20043;-77
2022/05/20 12:28:24;;;;;;;8.50;2.40;;;32.20;32.70;;;;;;5072955;28;20027;-75
2022/05/20 12:31:13;;;;;;;2.53;2.25;;;32.30;32.20;;;;;;5072920;28;20024;-75
2022/05/20 12:34:05;;;;;;;3.10;2.25;;;32.30;31.90;;;;;;5072835;28;20025;-77
2022/05/20 12:36:38;;;;;;;3.97;2.75;;;32.40;32.20;;;;;;5072771;28;20455;-78
2022/05/20 12:39:07;;;;;;;3.95;2.25;;;32.40;31.90;;;;;;5072962;28;20024;-74
2022/05/20 12:41:48;;;;;;;3.47;2.45;;;32.40;31.60;;;;;;5071526;28;20032;-75
2022/05/20 12:44:16;;;;;;;3.55;2.20;;;32.50;32.10;;;;;;5072861;28;20028;-75
2022/05/20 12:47:00;;;;;;;3.47;2.35;;;32.50;31.90;;;;;;5072779;28;20074;-77
2022/05/20 12:49:30;;;;;;;;;;;32.60;31.80;;;;;;5073209;28;20020;-76
2022/05/20 12:52:13;;;;;;;3.30;2.08;;;32.60;32.70;;;;;;5072097;28;20320;-75
2022/05/20 12:54:43;;;;;;;3.13;2.35;;;32.70;31.80;;;;;;5071405;28;20056;-76
2022/05/20 12:57:16;;;;;;;4.47;2.25;;;32.80;32.00;;;;;;5051127;28;20052;-77
2022/05/20 12:59:42;;;;;;;4.88;2.55;;;32.80;31.70;;;;;;5052461;28;20031;-76
2022/05/20 13:02:13;;;;;;;3.58;2.13;;;32.80;31.70;;;;;;5072345;28;20040;-76
2022/05/20 13:04:55;;;;;;;4.25;2.25;;;32.90;32.00;;;;;;5055052;28;20134;-76
2022/05/20 13:07:21;;;;;;;6.22;2.05;;;32.90;32.00;;;;;;5054854;28;20064;-77
2022/05/20 13:09:48;;;;;;;5.35;2.50;;;33.00;32.00;;;;;;5072765;28;20055;-77
2022/05/20 13:12:18;;;;;;;6.30;2.50;;;33.10;31.50;;;;;;5072712;28;20032;-78
2022/05/20 13:14:54;;;;;;;3.20;2.20;;;33.10;31.40;;;;;;5054850;28;20020;-77
2022/05/20 13:17:21;;;;;;;2.60;2.08;;;33.20;31.10;;;;;;5072767;28;20052;-76
2022/05/20 13:19:54;;;;;;;3.80;2.33;;;33.30;31.30;;;;;;5084093;28;20024;-77
2022/05/20 13:22:23;;;;;;;4.07;2.53;;;33.30;31.10;;;;;;5092915;28;20035;-77
2022/05/20 13:24:54;;;;;;;6.25;2.60;;;33.40;31.40;;;;;;5093163;28;20473;-76
2022/05/20 13:27:21;;;;;;;5.38;2.67;;;33.60;31.40;;;;;;5092811;28;20461;-77
2022/05/20 13:29:48;;;;;;;4.93;2.15;;;33.80;30.70;;;;;;5093004;28;20023;-77
2022/05/20 13:32:15;;;;;;;3.85;1.92;;;34.00;30.30;;;;;;5094073;28;20432;-77
2022/05/20 13:34:50;;;;;;;15.85;3.40;;;34.30;30.00;;;;;;5094311;28;20130;-77
2022/05/20 13:37:30;;;;;;;5.32;2.17;;;34.80;30.10;;;;;;5077634;28;20020;-76
2022/05/20 13:40:12;;;;;;;3.75;2.00;;;35.30;29.60;;;;;;5093333;28;20017;-76
2022/05/20 13:42:43;;;;;;;43.15;4.05;;;35.80;29.10;;;;;;5092439;28;20569;-77
2022/05/20 13:45:13;;;;;;;13.90;2.67;;;36.30;29.10;;;;;;5092504;28;20475;-78
2022/05/20 13:50:25;;;;;;;4.43;2.10;;;37.30;28.00;;;;;;5092710;28;20035;-76
2022/05/20 13:52:54;;;;;;;3.00;1.90;;;37.90;27.50;;;;;;5092360;28;20081;-76